sensor_id;sensor_type;location;lat;lon;timestamp;P1;durP1;ratioP1;P2;durP2;ratioP2
46491;SDS011;32206;51.446;6.792;2023-09-12T00:00:55;7.80;;;6.68;;
46491;SDS011;32206;51.446;6.792;2023-09-12T00:03:22;7.88;;;6.88;;
46491;SDS011;32206;51.446;6.792;2023-09-12T00:05:55;8.98;;;6.75;;
46491;SDS011;32206;51.446;6.792;2023-09-12T00:08:21;11.05;;;7.22;;
46491;SDS011;32206;51.446;6.792;2023-09-12T00:10:58;10.30;;;8.38;;
46491;SDS011;32206;51.446;6.792;2023-09-12T00:13:25;10.43;;;7.80;;
46491;SDS011;32206;51.446;6.792;2023-09-12T00:15:50;12.02;;;8.93;;
46491;SDS011;32206;51.446;6.792;2023-09-12T00:18:16;10.05;;;8.85;;
46491;SDS011;32206;51.446;6.792;2023-09-12T00:20:41;10.10;;;7.90;;
46491;SDS011;32206;51.446;6.792;2023-09-12T00:23:07;15.65;;;9.10;;
46491;SDS011;32206;51.446;6.792;2023-09-12T00:25:33;15.18;;;8.90;;
46491;SDS011;32206;51.446;6.792;2023-09-12T00:27:58;15.80;;;10.13;;
46491;SDS011;32206;51.446;6.792;2023-09-12T00:30:24;16.60;;;10.82;;
46491;SDS011;32206;51.446;6.792;2023-09-12T00:32:50;13.50;;;9.77;;
46491;SDS011;32206;51.446;6.792;2023-09-12T00:35:15;17.77;;;10.80;;
46491;SDS011;32206;51.446;6.792;2023-09-12T00:37:41;25.58;;;12.25;;
46491;SDS011;32206;51.446;6.792;2023-09-12T00:40:07;16.05;;;10.02;;
46491;SDS011;32206;51.446;6.792;2023-09-12T00:42:32;17.35;;;11.55;;
46491;SDS011;32206;51.446;6.792;2023-09-12T00:44:58;19.95;;;11.88;;
46491;SDS011;32206;51.446;6.792;2023-09-12T00:47:24;17.95;;;12.05;;
46491;SDS011;32206;51.446;6.792;2023-09-12T00:49:52;16.52;;;10.82;;
46491;SDS011;32206;51.446;6.792;2023-09-12T00:52:19;16.17;;;10.25;;
46491;SDS011;32206;51.446;6.792;2023-09-12T00:54:47;21.25;;;10.25;;
46491;SDS011;32206;51.446;6.792;2023-09-12T01:00:35;15.45;;;10.52;;
46491;SDS011;32206;51.446;6.792;2023-09-12T01:03:01;21.05;;;11.32;;
46491;SDS011;32206;51.446;6.792;2023-09-12T01:05:28;11.55;;;9.80;;
46491;SDS011;32206;51.446;6.792;2023-09-12T01:07:54;18.63;;;10.98;;
46491;SDS011;32206;51.446;6.792;2023-09-12T01:10:20;16.20;;;9.98;;
46491;SDS011;32206;51.446;6.792;2023-09-12T01:12:46;12.68;;;10.20;;
46491;SDS011;32206;51.446;6.792;2023-09-12T01:15:12;16.23;;;10.45;;
46491;SDS011;32206;51.446;6.792;2023-09-12T01:17:43;15.00;;;10.63;;
46491;SDS011;32206;51.446;6.792;2023-09-12T01:20:11;15.65;;;11.75;;
46491;SDS011;32206;51.446;6.792;2023-09-12T01:27:56;14.15;;;11.45;;
46491;SDS011;32206;51.446;6.792;2023-09-12T01:30:24;16.60;;;11.35;;
46491;SDS011;32206;51.446;6.792;2023-09-12T01:32:52;22.58;;;11.88;;
46491;SDS011;32206;51.446;6.792;2023-09-12T01:35:20;18.63;;;12.40;;
46491;SDS011;32206;51.446;6.792;2023-09-12T01:37:45;16.08;;;12.30;;
46491;SDS011;32206;51.446;6.792;2023-09-12T01:40:11;17.75;;;13.32;;
46491;SDS011;32206;51.446;6.792;2023-09-12T01:42:39;17.67;;;12.35;;
46491;SDS011;32206;51.446;6.792;2023-09-12T01:45:13;14.45;;;12.57;;
46491;SDS011;32206;51.446;6.792;2023-09-12T01:47:41;19.50;;;13.02;;
46491;SDS011;32206;51.446;6.792;2023-09-12T01:50:08;14.85;;;12.20;;
46491;SDS011;32206;51.446;6.792;2023-09-12T01:52:38;17.38;;;12.40;;
46491;SDS011;32206;51.446;6.792;2023-09-12T01:55:04;14.43;;;11.50;;
46491;SDS011;32206;51.446;6.792;2023-09-12T01:57:34;20.25;;;11.38;;
46491;SDS011;32206;51.446;6.792;2023-09-12T02:00:00;16.17;;;11.55;;
46491;SDS011;32206;51.446;6.792;2023-09-12T02:02:26;17.90;;;11.68;;
46491;SDS011;32206;51.446;6.792;2023-09-12T02:13:55;17.23;;;12.20;;
46491;SDS011;32206;51.446;6.792;2023-09-12T02:16:21;14.00;;;11.30;;
46491;SDS011;32206;51.446;6.792;2023-09-12T02:18:46;16.88;;;11.95;;
46491;SDS011;32206;51.446;6.792;2023-09-12T02:21:13;16.50;;;11.52;;
46491;SDS011;32206;51.446;6.792;2023-09-12T02:23:40;14.52;;;12.07;;
46491;SDS011;32206;51.446;6.792;2023-09-12T02:26:07;15.45;;;11.10;;
46491;SDS011;32206;51.446;6.792;2023-09-12T02:28:32;15.68;;;11.13;;
46491;SDS011;32206;51.446;6.792;2023-09-12T02:30:58;20.80;;;12.43;;
46491;SDS011;32206;51.446;6.792;2023-09-12T02:33:24;15.30;;;11.77;;
46491;SDS011;32206;51.446;6.792;2023-09-12T02:35:50;17.02;;;12.07;;
46491;SDS011;32206;51.446;6.792;2023-09-12T02:38:16;12.40;;;10.90;;
46491;SDS011;32206;51.446;6.792;2023-09-12T02:40:45;13.73;;;11.43;;
46491;SDS011;32206;51.446;6.792;2023-09-12T02:43:10;18.02;;;12.13;;
46491;SDS011;32206;51.446;6.792;2023-09-12T02:45:36;14.57;;;12.27;;
46491;SDS011;32206;51.446;6.792;2023-09-12T02:48:01;14.68;;;12.35;;
46491;SDS011;32206;51.446;6.792;2023-09-12T02:50:27;14.13;;;12.23;;
46491;SDS011;32206;51.446;6.792;2023-09-12T02:52:53;14.73;;;12.77;;
46491;SDS011;32206;51.446;6.792;2023-09-12T02:55:19;18.10;;;12.88;;
46491;SDS011;32206;51.446;6.792;2023-09-12T02:57:44;15.50;;;13.18;;
46491;SDS011;32206;51.446;6.792;2023-09-12T03:00:10;18.40;;;13.23;;
46491;SDS011;32206;51.446;6.792;2023-09-12T03:02:36;16.63;;;12.30;;
46491;SDS011;32206;51.446;6.792;2023-09-12T03:05:02;18.90;;;13.15;;
46491;SDS011;32206;51.446;6.792;2023-09-12T03:07:29;22.52;;;14.68;;
46491;SDS011;32206;51.446;6.792;2023-09-12T03:09:55;22.67;;;15.30;;
46491;SDS011;32206;51.446;6.792;2023-09-12T03:12:21;19.35;;;12.93;;
46491;SDS011;32206;51.446;6.792;2023-09-12T03:14:46;21.27;;;14.23;;
46491;SDS011;32206;51.446;6.792;2023-09-12T03:17:12;22.92;;;14.90;;
46491;SDS011;32206;51.446;6.792;2023-09-12T03:19:37;21.55;;;14.02;;
46491;SDS011;32206;51.446;6.792;2023-09-12T03:22:03;18.95;;;14.05;;
46491;SDS011;32206;51.446;6.792;2023-09-12T03:28:10;22.58;;;16.42;;
46491;SDS011;32206;51.446;6.792;2023-09-12T03:30:36;22.13;;;16.77;;
46491;SDS011;32206;51.446;6.792;2023-09-12T03:33:03;21.63;;;15.65;;
46491;SDS011;32206;51.446;6.792;2023-09-12T03:35:30;30.67;;;17.73;;
46491;SDS011;32206;51.446;6.792;2023-09-12T03:37:57;26.45;;;16.23;;
46491;SDS011;32206;51.446;6.792;2023-09-12T03:40:22;25.02;;;17.67;;
46491;SDS011;32206;51.446;6.792;2023-09-12T03:42:48;24.05;;;17.60;;
46491;SDS011;32206;51.446;6.792;2023-09-12T03:45:14;24.55;;;16.98;;
46491;SDS011;32206;51.446;6.792;2023-09-12T03:47:39;23.35;;;17.85;;
46491;SDS011;32206;51.446;6.792;2023-09-12T03:50:05;22.67;;;17.50;;
46491;SDS011;32206;51.446;6.792;2023-09-12T03:52:31;24.50;;;18.00;;
46491;SDS011;32206;51.446;6.792;2023-09-12T03:54:57;39.33;;;27.88;;
46491;SDS011;32206;51.446;6.792;2023-09-12T03:57:22;27.20;;;19.98;;
46491;SDS011;32206;51.446;6.792;2023-09-12T03:59:50;30.98;;;21.25;;
46491;SDS011;32206;51.446;6.792;2023-09-12T04:02:16;32.28;;;19.67;;
46491;SDS011;32206;51.446;6.792;2023-09-12T04:04:42;27.80;;;19.65;;
46491;SDS011;32206;51.446;6.792;2023-09-12T04:07:07;31.73;;;19.55;;
46491;SDS011;32206;51.446;6.792;2023-09-12T04:09:33;31.17;;;20.05;;
46491;SDS011;32206;51.446;6.792;2023-09-12T04:11:59;25.90;;;19.73;;
46491;SDS011;32206;51.446;6.792;2023-09-12T04:14:24;28.25;;;20.30;;
46491;SDS011;32206;51.446;6.792;2023-09-12T04:16:50;27.67;;;19.27;;
46491;SDS011;32206;51.446;6.792;2023-09-12T04:19:15;24.67;;;19.33;;
46491;SDS011;32206;51.446;6.792;2023-09-12T04:21:41;28.73;;;19.02;;
46491;SDS011;32206;51.446;6.792;2023-09-12T04:24:07;31.45;;;21.17;;
46491;SDS011;32206;51.446;6.792;2023-09-12T04:26:33;30.13;;;20.27;;
46491;SDS011;32206;51.446;6.792;2023-09-12T04:28:59;27.77;;;20.15;;
46491;SDS011;32206;51.446;6.792;2023-09-12T04:31:24;27.50;;;20.67;;
46491;SDS011;32206;51.446;6.792;2023-09-12T04:33:50;29.40;;;19.58;;
46491;SDS011;32206;51.446;6.792;2023-09-12T04:43:01;28.23;;;19.70;;
46491;SDS011;32206;51.446;6.792;2023-09-12T04:48:49;21.23;;;18.05;;
46491;SDS011;32206;51.446;6.792;2023-09-12T04:51:15;26.42;;;19.83;;
46491;SDS011;32206;51.446;6.792;2023-09-12T04:53:40;28.08;;;19.30;;
46491;SDS011;32206;51.446;6.792;2023-09-12T04:56:06;26.17;;;19.42;;
46491;SDS011;32206;51.446;6.792;2023-09-12T04:58:34;26.88;;;18.33;;
46491;SDS011;32206;51.446;6.792;2023-09-12T05:01:00;23.13;;;18.83;;
46491;SDS011;32206;51.446;6.792;2023-09-12T05:03:25;28.05;;;19.75;;
46491;SDS011;32206;51.446;6.792;2023-09-12T05:05:51;28.10;;;19.63;;
46491;SDS011;32206;51.446;6.792;2023-09-12T05:08:17;25.05;;;19.52;;
46491;SDS011;32206;51.446;6.792;2023-09-12T05:10:46;27.77;;;19.27;;
46491;SDS011;32206;51.446;6.792;2023-09-12T05:13:12;26.40;;;19.58;;
46491;SDS011;32206;51.446;6.792;2023-09-12T05:15:38;32.33;;;21.35;;
46491;SDS011;32206;51.446;6.792;2023-09-12T05:18:05;28.92;;;20.05;;
46491;SDS011;32206;51.446;6.792;2023-09-12T05:20:32;27.95;;;19.58;;
46491;SDS011;32206;51.446;6.792;2023-09-12T05:22:58;32.35;;;20.67;;
46491;SDS011;32206;51.446;6.792;2023-09-12T05:25:23;29.60;;;19.92;;
46491;SDS011;32206;51.446;6.792;2023-09-12T05:27:49;39.50;;;22.02;;
46491;SDS011;32206;51.446;6.792;2023-09-12T05:30:15;35.20;;;19.77;;
46491;SDS011;32206;51.446;6.792;2023-09-12T05:32:40;34.63;;;20.80;;
46491;SDS011;32206;51.446;6.792;2023-09-12T05:35:06;32.67;;;19.85;;
46491;SDS011;32206;51.446;6.792;2023-09-12T05:37:32;34.60;;;21.23;;
46491;SDS011;32206;51.446;6.792;2023-09-12T05:39:58;30.67;;;20.83;;
46491;SDS011;32206;51.446;6.792;2023-09-12T05:42:23;38.17;;;20.73;;
46491;SDS011;32206;51.446;6.792;2023-09-12T05:44:49;34.58;;;21.20;;
46491;SDS011;32206;51.446;6.792;2023-09-12T05:47:18;30.98;;;20.50;;
46491;SDS011;32206;51.446;6.792;2023-09-12T05:49:44;28.58;;;20.38;;
46491;SDS011;32206;51.446;6.792;2023-09-12T05:52:10;32.30;;;20.40;;
46491;SDS011;32206;51.446;6.792;2023-09-12T05:54:36;29.10;;;21.77;;
46491;SDS011;32206;51.446;6.792;2023-09-12T05:57:02;29.90;;;19.48;;
46491;SDS011;32206;51.446;6.792;2023-09-12T05:59:28;33.35;;;21.15;;
46491;SDS011;32206;51.446;6.792;2023-09-12T06:01:54;33.60;;;21.55;;
46491;SDS011;32206;51.446;6.792;2023-09-12T06:04:20;29.45;;;20.98;;
46491;SDS011;32206;51.446;6.792;2023-09-12T06:06:46;33.97;;;21.63;;
46491;SDS011;32206;51.446;6.792;2023-09-12T06:09:12;37.35;;;22.95;;
46491;SDS011;32206;51.446;6.792;2023-09-12T06:11:38;37.22;;;21.48;;
46491;SDS011;32206;51.446;6.792;2023-09-12T06:14:04;30.92;;;22.30;;
46491;SDS011;32206;51.446;6.792;2023-09-12T06:16:29;30.02;;;18.27;;
46491;SDS011;32206;51.446;6.792;2023-09-12T06:18:55;29.23;;;19.10;;
46491;SDS011;32206;51.446;6.792;2023-09-12T06:21:21;34.47;;;20.48;;
46491;SDS011;32206;51.446;6.792;2023-09-12T06:23:47;23.75;;;15.68;;
46491;SDS011;32206;51.446;6.792;2023-09-12T06:26:13;9.75;;;6.45;;
46491;SDS011;32206;51.446;6.792;2023-09-12T06:28:39;10.95;;;7.03;;
46491;SDS011;32206;51.446;6.792;2023-09-12T06:31:07;6.18;;;4.75;;
46491;SDS011;32206;51.446;6.792;2023-09-12T06:33:34;7.90;;;4.80;;
46491;SDS011;32206;51.446;6.792;2023-09-12T06:36:00;7.95;;;5.55;;
46491;SDS011;32206;51.446;6.792;2023-09-12T06:45:10;8.52;;;5.63;;
46491;SDS011;32206;51.446;6.792;2023-09-12T06:47:36;10.27;;;4.47;;
46491;SDS011;32206;51.446;6.792;2023-09-12T06:50:01;8.35;;;4.47;;
46491;SDS011;32206;51.446;6.792;2023-09-12T06:52:27;7.35;;;4.93;;
46491;SDS011;32206;51.446;6.792;2023-09-12T06:54:53;6.72;;;4.65;;
46491;SDS011;32206;51.446;6.792;2023-09-12T07:00:41;10.00;;;5.70;;
46491;SDS011;32206;51.446;6.792;2023-09-12T07:03:06;8.57;;;5.45;;
46491;SDS011;32206;51.446;6.792;2023-09-12T07:05:32;9.30;;;5.97;;
46491;SDS011;32206;51.446;6.792;2023-09-12T07:08:01;8.27;;;5.78;;
46491;SDS011;32206;51.446;6.792;2023-09-12T07:10:27;12.80;;;5.05;;
46491;SDS011;32206;51.446;6.792;2023-09-12T07:12:52;7.43;;;5.13;;
46491;SDS011;32206;51.446;6.792;2023-09-12T07:15:18;7.88;;;6.03;;
46491;SDS011;32206;51.446;6.792;2023-09-12T07:17:44;8.02;;;5.70;;
46491;SDS011;32206;51.446;6.792;2023-09-12T07:23:38;11.75;;;5.47;;
46491;SDS011;32206;51.446;6.792;2023-09-12T07:26:04;13.35;;;5.97;;
46491;SDS011;32206;51.446;6.792;2023-09-12T07:28:30;6.30;;;5.65;;
46491;SDS011;32206;51.446;6.792;2023-09-12T07:30:56;7.32;;;5.07;;
46491;SDS011;32206;51.446;6.792;2023-09-12T07:33:23;6.40;;;5.05;;
46491;SDS011;32206;51.446;6.792;2023-09-12T07:35:49;8.93;;;5.10;;
46491;SDS011;32206;51.446;6.792;2023-09-12T07:38:20;8.95;;;4.32;;
46491;SDS011;32206;51.446;6.792;2023-09-12T07:40:46;8.70;;;4.18;;
46491;SDS011;32206;51.446;6.792;2023-09-12T07:43:12;6.60;;;3.83;;
46491;SDS011;32206;51.446;6.792;2023-09-12T07:45:38;5.72;;;3.50;;
46491;SDS011;32206;51.446;6.792;2023-09-12T07:48:07;6.82;;;5.25;;
46491;SDS011;32206;51.446;6.792;2023-09-12T07:50:34;12.52;;;5.57;;
46491;SDS011;32206;51.446;6.792;2023-09-12T07:53:00;10.93;;;5.85;;
46491;SDS011;32206;51.446;6.792;2023-09-12T07:55:25;10.93;;;6.20;;
46491;SDS011;32206;51.446;6.792;2023-09-12T07:57:55;11.70;;;6.60;;
46491;SDS011;32206;51.446;6.792;2023-09-12T08:03:43;8.73;;;7.10;;
46491;SDS011;32206;51.446;6.792;2023-09-12T08:06:09;9.15;;;7.82;;
46491;SDS011;32206;51.446;6.792;2023-09-12T08:08:34;8.57;;;7.50;;
46491;SDS011;32206;51.446;6.792;2023-09-12T08:11:00;9.00;;;7.65;;
46491;SDS011;32206;51.446;6.792;2023-09-12T08:13:27;10.30;;;8.45;;
46491;SDS011;32206;51.446;6.792;2023-09-12T08:19:32;9.75;;;8.75;;
46491;SDS011;32206;51.446;6.792;2023-09-12T08:38:14;11.35;;;10.25;;
46491;SDS011;32206;51.446;6.792;2023-09-12T08:44:02;14.07;;;11.95;;
46491;SDS011;32206;51.446;6.792;2023-09-12T08:46:30;16.02;;;13.63;;
46491;SDS011;32206;51.446;6.792;2023-09-12T08:48:56;19.27;;;13.93;;
46491;SDS011;32206;51.446;6.792;2023-09-12T08:51:22;16.50;;;14.30;;
46491;SDS011;32206;51.446;6.792;2023-09-12T08:53:49;18.50;;;15.05;;
46491;SDS011;32206;51.446;6.792;2023-09-12T08:56:15;18.30;;;16.35;;
46491;SDS011;32206;51.446;6.792;2023-09-12T08:58:42;21.13;;;18.20;;
46491;SDS011;32206;51.446;6.792;2023-09-12T09:01:08;22.92;;;19.52;;
46491;SDS011;32206;51.446;6.792;2023-09-12T09:03:36;27.67;;;21.58;;
46491;SDS011;32206;51.446;6.792;2023-09-12T09:06:03;27.30;;;20.05;;
46491;SDS011;32206;51.446;6.792;2023-09-12T09:08:30;23.08;;;18.23;;
46491;SDS011;32206;51.446;6.792;2023-09-12T09:10:58;20.10;;;15.93;;
46491;SDS011;32206;51.446;6.792;2023-09-12T09:13:27;13.38;;;11.75;;
46491;SDS011;32206;51.446;6.792;2023-09-12T09:16:11;13.38;;;10.73;;
46491;SDS011;32206;51.446;6.792;2023-09-12T09:18:51;16.90;;;12.05;;
46491;SDS011;32206;51.446;6.792;2023-09-12T09:21:18;15.98;;;11.60;;
46491;SDS011;32206;51.446;6.792;2023-09-12T09:23:45;16.15;;;11.35;;
46491;SDS011;32206;51.446;6.792;2023-09-12T09:26:13;12.35;;;10.75;;
46491;SDS011;32206;51.446;6.792;2023-09-12T09:28:38;13.38;;;9.20;;
46491;SDS011;32206;51.446;6.792;2023-09-12T09:31:04;11.75;;;9.63;;
46491;SDS011;32206;51.446;6.792;2023-09-12T09:33:35;11.02;;;9.93;;
46491;SDS011;32206;51.446;6.792;2023-09-12T09:36:02;12.40;;;9.98;;
46491;SDS011;32206;51.446;6.792;2023-09-12T09:38:29;11.77;;;10.30;;
46491;SDS011;32206;51.446;6.792;2023-09-12T09:40:55;11.95;;;10.27;;
46491;SDS011;32206;51.446;6.792;2023-09-12T09:43:21;18.65;;;12.07;;
46491;SDS011;32206;51.446;6.792;2023-09-12T09:45:47;16.45;;;11.90;;
46491;SDS011;32206;51.446;6.792;2023-09-12T09:48:23;15.50;;;10.70;;
46491;SDS011;32206;51.446;6.792;2023-09-12T09:50:52;12.40;;;10.20;;
46491;SDS011;32206;51.446;6.792;2023-09-12T09:53:25;12.55;;;11.18;;
46491;SDS011;32206;51.446;6.792;2023-09-12T09:55:51;14.57;;;11.50;;
46491;SDS011;32206;51.446;6.792;2023-09-12T09:58:17;21.67;;;14.25;;
46491;SDS011;32206;51.446;6.792;2023-09-12T10:00:43;21.60;;;14.95;;
46491;SDS011;32206;51.446;6.792;2023-09-12T10:03:09;20.23;;;15.05;;
46491;SDS011;32206;51.446;6.792;2023-09-12T10:05:37;14.88;;;11.73;;
46491;SDS011;32206;51.446;6.792;2023-09-12T10:08:03;16.83;;;11.35;;
46491;SDS011;32206;51.446;6.792;2023-09-12T10:10:33;12.13;;;9.40;;
46491;SDS011;32206;51.446;6.792;2023-09-12T10:13:00;7.72;;;7.03;;
46491;SDS011;32206;51.446;6.792;2023-09-12T10:15:29;6.80;;;6.18;;
46491;SDS011;32206;51.446;6.792;2023-09-12T10:17:59;6.55;;;5.95;;
46491;SDS011;32206;51.446;6.792;2023-09-12T10:20:50;8.05;;;6.90;;
46491;SDS011;32206;51.446;6.792;2023-09-12T10:26:12;8.73;;;6.45;;
46491;SDS011;32206;51.446;6.792;2023-09-12T10:28:41;8.82;;;5.35;;
46491;SDS011;32206;51.446;6.792;2023-09-12T10:31:08;4.38;;;3.97;;
46491;SDS011;32206;51.446;6.792;2023-09-12T10:33:36;5.70;;;3.72;;
46491;SDS011;32206;51.446;6.792;2023-09-12T10:36:08;7.75;;;4.35;;
46491;SDS011;32206;51.446;6.792;2023-09-12T10:38:36;5.78;;;4.35;;
46491;SDS011;32206;51.446;6.792;2023-09-12T10:41:11;4.38;;;3.97;;
46491;SDS011;32206;51.446;6.792;2023-09-12T10:43:39;6.90;;;3.33;;
46491;SDS011;32206;51.446;6.792;2023-09-12T10:46:06;3.72;;;3.42;;
46491;SDS011;32206;51.446;6.792;2023-09-12T10:48:33;3.92;;;3.15;;
46491;SDS011;32206;51.446;6.792;2023-09-12T10:51:00;3.30;;;2.72;;
46491;SDS011;32206;51.446;6.792;2023-09-12T10:53:30;5.07;;;3.72;;
46491;SDS011;32206;51.446;6.792;2023-09-12T11:02:42;3.70;;;3.38;;
46491;SDS011;32206;51.446;6.792;2023-09-12T11:07:55;4.07;;;3.78;;
46491;SDS011;32206;51.446;6.792;2023-09-12T11:10:25;3.75;;;3.30;;
46491;SDS011;32206;51.446;6.792;2023-09-12T11:12:52;2.47;;;2.33;;
46491;SDS011;32206;51.446;6.792;2023-09-12T11:15:22;4.47;;;2.78;;
46491;SDS011;32206;51.446;6.792;2023-09-12T11:17:59;4.43;;;2.70;;
46491;SDS011;32206;51.446;6.792;2023-09-12T11:20:49;5.50;;;3.50;;
46491;SDS011;32206;51.446;6.792;2023-09-12T11:23:24;4.45;;;3.70;;
46491;SDS011;32206;51.446;6.792;2023-09-12T11:26:06;3.60;;;2.75;;
46491;SDS011;32206;51.446;6.792;2023-09-12T11:28:32;16.85;;;11.73;;
46491;SDS011;32206;51.446;6.792;2023-09-12T11:30:59;5.07;;;4.45;;
46491;SDS011;32206;51.446;6.792;2023-09-12T11:33:25;6.40;;;3.30;;
46491;SDS011;32206;51.446;6.792;2023-09-12T11:35:54;4.50;;;3.28;;
46491;SDS011;32206;51.446;6.792;2023-09-12T11:38:26;5.47;;;4.07;;
46491;SDS011;32206;51.446;6.792;2023-09-12T11:40:53;5.47;;;3.60;;
46491;SDS011;32206;51.446;6.792;2023-09-12T11:43:22;3.75;;;3.47;;
46491;SDS011;32206;51.446;6.792;2023-09-12T11:45:49;4.07;;;3.60;;
46491;SDS011;32206;51.446;6.792;2023-09-12T11:48:16;7.82;;;2.80;;
46491;SDS011;32206;51.446;6.792;2023-09-12T11:50:49;3.95;;;3.65;;
46491;SDS011;32206;51.446;6.792;2023-09-12T11:53:18;3.63;;;3.33;;
46491;SDS011;32206;51.446;6.792;2023-09-12T11:58:19;3.28;;;2.45;;
46491;SDS011;32206;51.446;6.792;2023-09-12T12:00:45;2.60;;;2.40;;
46491;SDS011;32206;51.446;6.792;2023-09-12T12:03:19;3.65;;;2.45;;
46491;SDS011;32206;51.446;6.792;2023-09-12T12:05:48;7.80;;;2.70;;
46491;SDS011;32206;51.446;6.792;2023-09-12T12:08:15;3.15;;;2.95;;
46491;SDS011;32206;51.446;6.792;2023-09-12T12:10:42;5.22;;;2.90;;
46491;SDS011;32206;51.446;6.792;2023-09-12T12:13:12;4.03;;;2.30;;
46491;SDS011;32206;51.446;6.792;2023-09-12T12:15:41;2.42;;;2.03;;
46491;SDS011;32206;51.446;6.792;2023-09-12T12:18:07;4.18;;;2.55;;
46491;SDS011;32206;51.446;6.792;2023-09-12T12:20:32;2.80;;;2.22;;
46491;SDS011;32206;51.446;6.792;2023-09-12T12:22:58;3.55;;;2.75;;
46491;SDS011;32206;51.446;6.792;2023-09-12T12:25:24;2.65;;;2.42;;
46491;SDS011;32206;51.446;6.792;2023-09-12T12:27:49;2.35;;;2.08;;
46491;SDS011;32206;51.446;6.792;2023-09-12T12:30:15;6.13;;;2.53;;
46491;SDS011;32206;51.446;6.792;2023-09-12T12:32:43;2.53;;;2.20;;
46491;SDS011;32206;51.446;6.792;2023-09-12T12:35:19;5.60;;;2.55;;
46491;SDS011;32206;51.446;6.792;2023-09-12T12:37:48;3.95;;;2.67;;
46491;SDS011;32206;51.446;6.792;2023-09-12T12:40:14;4.63;;;3.30;;
46491;SDS011;32206;51.446;6.792;2023-09-12T12:42:42;7.40;;;3.63;;
46491;SDS011;32206;51.446;6.792;2023-09-12T12:45:12;7.88;;;4.18;;
46491;SDS011;32206;51.446;6.792;2023-09-12T12:47:39;6.45;;;4.45;;
46491;SDS011;32206;51.446;6.792;2023-09-12T12:50:10;9.43;;;6.00;;
46491;SDS011;32206;51.446;6.792;2023-09-12T12:55:06;5.55;;;5.00;;
46491;SDS011;32206;51.446;6.792;2023-09-12T12:57:39;9.68;;;5.38;;
46491;SDS011;32206;51.446;6.792;2023-09-12T13:00:08;9.10;;;4.75;;
46491;SDS011;32206;51.446;6.792;2023-09-12T13:02:41;3.30;;;2.97;;
46491;SDS011;32206;51.446;6.792;2023-09-12T13:05:25;3.63;;;2.92;;
46491;SDS011;32206;51.446;6.792;2023-09-12T13:07:52;3.17;;;2.72;;
46491;SDS011;32206;51.446;6.792;2023-09-12T13:10:18;4.25;;;2.92;;
46491;SDS011;32206;51.446;6.792;2023-09-12T13:12:44;2.97;;;2.60;;
46491;SDS011;32206;51.446;6.792;2023-09-12T13:15:11;4.97;;;2.60;;
46491;SDS011;32206;51.446;6.792;2023-09-12T13:17:37;6.30;;;4.00;;
46491;SDS011;32206;51.446;6.792;2023-09-12T13:20:03;8.65;;;3.80;;
46491;SDS011;32206;51.446;6.792;2023-09-12T13:22:29;4.72;;;4.32;;
46491;SDS011;32206;51.446;6.792;2023-09-12T13:24:55;6.30;;;3.90;;
46491;SDS011;32206;51.446;6.792;2023-09-12T13:27:21;6.80;;;4.50;;
46491;SDS011;32206;51.446;6.792;2023-09-12T13:29:46;4.63;;;4.22;;
46491;SDS011;32206;51.446;6.792;2023-09-12T13:32:13;6.60;;;4.38;;
46491;SDS011;32206;51.446;6.792;2023-09-12T13:34:40;4.60;;;4.25;;
46491;SDS011;32206;51.446;6.792;2023-09-12T13:37:06;13.95;;;3.95;;
46491;SDS011;32206;51.446;6.792;2023-09-12T13:39:31;4.40;;;4.00;;
46491;SDS011;32206;51.446;6.792;2023-09-12T13:41:57;5.82;;;3.90;;
46491;SDS011;32206;51.446;6.792;2023-09-12T13:44:24;3.22;;;3.03;;
46491;SDS011;32206;51.446;6.792;2023-09-12T13:46:50;4.65;;;3.25;;
46491;SDS011;32206;51.446;6.792;2023-09-12T13:49:16;3.67;;;2.72;;
46491;SDS011;32206;51.446;6.792;2023-09-12T13:51:41;6.30;;;3.40;;
46491;SDS011;32206;51.446;6.792;2023-09-12T13:54:07;3.35;;;3.10;;
46491;SDS011;32206;51.446;6.792;2023-09-12T13:56:39;3.38;;;2.95;;
46491;SDS011;32206;51.446;6.792;2023-09-12T13:59:11;3.65;;;3.35;;
46491;SDS011;32206;51.446;6.792;2023-09-12T14:01:37;5.78;;;3.88;;
46491;SDS011;32206;51.446;6.792;2023-09-12T14:07:02;3.38;;;3.08;;
46491;SDS011;32206;51.446;6.792;2023-09-12T14:09:28;4.45;;;3.83;;
46491;SDS011;32206;51.446;6.792;2023-09-12T14:11:54;4.60;;;3.90;;
46491;SDS011;32206;51.446;6.792;2023-09-12T14:14:19;3.38;;;3.03;;
46491;SDS011;32206;51.446;6.792;2023-09-12T14:16:45;4.35;;;3.17;;
46491;SDS011;32206;51.446;6.792;2023-09-12T14:19:11;3.38;;;3.17;;
46491;SDS011;32206;51.446;6.792;2023-09-12T14:21:36;2.88;;;2.67;;
46491;SDS011;32206;51.446;6.792;2023-09-12T14:24:03;4.60;;;3.20;;
46491;SDS011;32206;51.446;6.792;2023-09-12T14:26:28;5.28;;;3.00;;
46491;SDS011;32206;51.446;6.792;2023-09-12T14:28:54;3.47;;;3.17;;
46491;SDS011;32206;51.446;6.792;2023-09-12T14:31:21;3.97;;;3.55;;
46491;SDS011;32206;51.446;6.792;2023-09-12T14:33:48;4.07;;;3.67;;
46491;SDS011;32206;51.446;6.792;2023-09-12T14:36:14;4.88;;;4.47;;
46491;SDS011;32206;51.446;6.792;2023-09-12T14:38:40;4.82;;;4.43;;
46491;SDS011;32206;51.446;6.792;2023-09-12T14:41:05;6.30;;;4.75;;
46491;SDS011;32206;51.446;6.792;2023-09-12T14:43:31;5.55;;;4.78;;
46491;SDS011;32206;51.446;6.792;2023-09-12T14:52:37;15.60;;;12.73;;
46491;SDS011;32206;51.446;6.792;2023-09-12T14:55:04;19.63;;;15.23;;
46491;SDS011;32206;51.446;6.792;2023-09-12T15:00:54;5.05;;;4.53;;
46491;SDS011;32206;51.446;6.792;2023-09-12T15:03:20;4.20;;;3.80;;
46491;SDS011;32206;51.446;6.792;2023-09-12T15:17:56;4.28;;;3.15;;
46491;SDS011;32206;51.446;6.792;2023-09-12T15:20:40;4.13;;;3.72;;
46491;SDS011;32206;51.446;6.792;2023-09-12T15:23:05;11.75;;;6.55;;
46491;SDS011;32206;51.446;6.792;2023-09-12T15:25:31;6.60;;;4.50;;
46491;SDS011;32206;51.446;6.792;2023-09-12T15:27:57;5.65;;;3.85;;
46491;SDS011;32206;51.446;6.792;2023-09-12T15:30:30;4.82;;;3.33;;
46491;SDS011;32206;51.446;6.792;2023-09-12T15:32:56;6.22;;;3.10;;
46491;SDS011;32206;51.446;6.792;2023-09-12T15:35:21;4.25;;;3.80;;
46491;SDS011;32206;51.446;6.792;2023-09-12T15:37:47;3.97;;;3.13;;
46491;SDS011;32206;51.446;6.792;2023-09-12T15:40:13;3.83;;;3.38;;
46491;SDS011;32206;51.446;6.792;2023-09-12T15:42:39;5.22;;;3.70;;
46491;SDS011;32206;51.446;6.792;2023-09-12T15:45:05;4.05;;;3.13;;
46491;SDS011;32206;51.446;6.792;2023-09-12T15:47:33;4.32;;;3.30;;
46491;SDS011;32206;51.446;6.792;2023-09-12T15:52:55;4.53;;;2.83;;
46491;SDS011;32206;51.446;6.792;2023-09-12T15:55:22;4.78;;;2.58;;
46491;SDS011;32206;51.446;6.792;2023-09-12T15:57:47;3.88;;;2.97;;
46491;SDS011;32206;51.446;6.792;2023-09-12T16:00:13;3.97;;;3.38;;
46491;SDS011;32206;51.446;6.792;2023-09-12T16:02:40;4.43;;;2.97;;
46491;SDS011;32206;51.446;6.792;2023-09-12T16:05:07;4.68;;;2.95;;
46491;SDS011;32206;51.446;6.792;2023-09-12T16:07:33;4.75;;;4.05;;
46491;SDS011;32206;51.446;6.792;2023-09-12T16:09:59;3.85;;;3.47;;
46491;SDS011;32206;51.446;6.792;2023-09-12T16:12:26;8.27;;;3.38;;
46491;SDS011;32206;51.446;6.792;2023-09-12T16:14:55;4.30;;;2.53;;
46491;SDS011;32206;51.446;6.792;2023-09-12T16:20:43;4.95;;;2.80;;
46491;SDS011;32206;51.446;6.792;2023-09-12T16:23:08;2.60;;;2.40;;
46491;SDS011;32206;51.446;6.792;2023-09-12T16:25:34;3.58;;;2.70;;
46491;SDS011;32206;51.446;6.792;2023-09-12T16:31:22;3.15;;;2.63;;
46491;SDS011;32206;51.446;6.792;2023-09-12T16:33:47;3.17;;;2.85;;
46491;SDS011;32206;51.446;6.792;2023-09-12T16:36:13;6.28;;;3.03;;